Time;durP1;ratioP1;P1;durP2;ratioP2;P2;SDS_P1;SDS_P2;PMS_P1;PMS_P2;Temp;Humidity;BMP_temperature;BMP_pressure;BME280_temperature;BME280_humidity;BME280_pressure;Samples;Min_cycle;Max_cycle;Signal;HPM_P1;HPM_P2
2023/07/28 00:01:31;;;;;;;30.88;11.38;;;18.60;99.90;;;;;;4989509;28;20488;-64
2023/07/28 00:03:57;;;;;;;47.05;14.45;;;18.50;99.90;;;;;;4981877;28;20035;-64
2023/07/28 00:06:23;;;;;;;29.33;12.32;;;17.80;99.90;;;;;;4990377;28;20274;-64
2023/07/28 00:08:49;;;;;;;40.20;13.93;;;18.50;99.90;;;;;;4981166;28;20121;-64
2023/07/28 00:11:15;;;;;;;35.63;12.68;;;18.40;99.90;;;;;;4989029;28;20030;-65
2023/07/28 00:13:42;;;;;;;33.60;13.27;;;18.70;99.90;;;;;;4982294;28;20042;-64
2023/07/28 00:16:08;;;;;;;37.83;14.23;;;18.60;99.90;;;;;;4976427;28;20038;-64
2023/07/28 00:18:34;;;;;;;29.95;11.63;;;17.80;99.90;;;;;;4988416;28;20034;-64
2023/07/28 00:21:00;;;;;;;31.23;13.38;;;18.00;99.90;;;;;;4980863;28;20541;-64
2023/07/28 00:23:25;;;;;;;29.05;13.00;;;18.30;99.90;;;;;;4979179;28;20034;-64
2023/07/28 00:25:51;;;;;;;33.00;13.98;;;18.30;99.90;;;;;;4975822;28;20127;-64
2023/07/28 00:28:17;;;;;;;28.25;12.23;;;17.70;99.90;;;;;;4988929;28;20038;-64
2023/07/28 00:30:42;;;;;;;34.97;14.00;;;17.70;99.90;;;;;;4989934;28;20382;-63
2023/07/28 00:33:08;;;;;;;38.10;12.70;;;17.60;99.90;;;;;;4989596;28;20039;-65
2023/07/28 00:35:34;;;;;;;33.50;14.13;;;18.20;99.90;;;;;;4989372;28;20030;-65
2023/07/28 00:38:00;;;;;;;38.05;14.48;;;18.10;99.90;;;;;;4989535;28;20121;-64
2023/07/28 00:40:25;;;;;;;34.75;12.98;;;18.40;99.90;;;;;;4987371;28;20194;-64
2023/07/28 00:42:52;;;;;;;39.28;14.18;;;;;;;;;;4982660;28;20038;-65
2023/07/28 00:45:18;;;;;;;36.70;14.82;;;18.30;99.90;;;;;;4985692;28;20051;-64
2023/07/28 00:47:44;;;;;;;37.47;16.05;;;18.10;99.90;;;;;;4989561;28;20445;-64
2023/07/28 00:50:10;;;;;;;32.50;14.85;;;17.70;99.90;;;;;;4993639;28;20084;-65
2023/07/28 00:52:36;;;;;;;39.13;15.43;;;17.70;99.90;;;;;;4985431;28;20030;-65
2023/07/28 00:55:02;;;;;;;38.35;15.45;;;17.80;99.90;;;;;;4992891;28;20086;-64
2023/07/28 00:57:28;;;;;;;42.17;18.02;;;18.20;99.90;;;;;;4996842;28;20180;-64
2023/07/28 00:59:54;;;;;;;47.00;17.38;;;18.30;99.90;;;;;;4988051;28;20073;-64
2023/07/28 01:02:21;;;;;;;53.33;18.23;;;18.60;99.90;;;;;;4984764;28;20045;-65
2023/07/28 01:04:47;;;;;;;49.33;18.20;;;18.20;99.90;;;;;;4988871;28;20045;-64
2023/07/28 01:07:20;;;;;;;43.25;16.55;;;18.20;99.90;;;;;;4990653;28;20038;-65
2023/07/28 01:10:08;;;;;;;51.58;16.40;;;17.80;99.90;;;;;;4989753;28;20092;-64
2023/07/28 01:12:34;;;;;;;41.30;14.82;;;18.00;99.90;;;;;;4993347;28;20046;-64
2023/07/28 01:14:59;;;;;;;38.40;16.38;;;17.90;99.90;;;;;;4984889;28;20089;-64
2023/07/28 01:17:25;;;;;;;45.85;16.80;;;18.50;99.90;;;;;;4971882;28;20039;-64
2023/07/28 01:19:52;;;;;;;37.88;14.77;;;17.70;99.90;;;;;;4982347;28;20081;-65
2023/07/28 01:23:04;;;;;;;36.42;15.15;;;17.90;99.90;;;;;;4993152;28;20503;-65
2023/07/28 01:25:45;;;;;;;38.63;16.15;;;18.40;99.90;;;;;;4985101;28;20377;-64
2023/07/28 01:28:12;;;;;;;31.58;15.15;;;17.90;99.90;;;;;;4995797;28;20042;-64
2023/07/28 01:30:38;;;;;;;34.30;15.07;;;18.10;99.90;;;;;;4992099;28;20038;-65
2023/07/28 01:33:07;;;;;;;32.75;14.18;;;18.10;99.90;;;;;;4992894;28;20073;-64
2023/07/28 01:35:34;;;;;;;32.38;12.95;;;18.40;99.90;;;;;;4995324;28;20069;-65
2023/07/28 01:38:00;;;;;;;32.63;14.05;;;18.50;99.90;;;;;;4985372;28;20038;-65
2023/07/28 01:40:25;;;;;;;30.55;13.57;;;18.40;99.90;;;;;;4988899;28;20039;-65
2023/07/28 01:42:51;;;;;;;33.30;14.27;;;18.10;99.90;;;;;;4987964;28;20034;-65
2023/07/28 01:45:17;;;;;;;33.05;13.20;;;17.90;99.90;;;;;;4978292;28;20096;-64
2023/07/28 01:47:42;;;;;;;30.88;12.65;;;17.50;99.90;;;;;;4992085;28;20034;-64
2023/07/28 01:50:08;;;;;;;29.50;13.30;;;17.90;99.90;;;;;;4998438;28;20046;-65
2023/07/28 01:52:33;;;;;;;35.92;14.57;;;17.50;99.90;;;;;;4992502;28;20041;-64
2023/07/28 01:54:59;;;;;;;30.88;12.02;;;18.10;99.90;;;;;;4992223;28;20459;-65
2023/07/28 01:57:27;;;;;;;29.05;12.55;;;18.20;99.90;;;;;;4980572;28;20045;-65
2023/07/28 01:59:54;;;;;;;31.90;13.38;;;18.40;99.90;;;;;;4983354;28;20043;-64
2023/07/28 02:02:19;;;;;;;32.05;11.90;;;18.00;99.90;;;;;;4982294;28;20035;-65
2023/07/28 02:04:46;;;;;;;30.92;11.18;;;18.30;99.90;;;;;;4977265;28;20046;-65
2023/07/28 02:07:11;;;;;;;33.88;10.85;;;17.90;99.90;;;;;;4987579;28;20046;-65
2023/07/28 02:09:37;;;;;;;27.55;10.57;;;17.90;99.90;;;;;;4987681;28;20041;-65
2023/07/28 02:12:03;;;;;;;29.23;9.15;;;17.90;99.90;;;;;;4997920;28;20042;-65
2023/07/28 02:14:28;;;;;;;29.13;9.75;;;17.70;99.90;;;;;;4991355;28;20100;-65
2023/07/28 02:16:54;;;;;;;28.40;9.35;;;17.80;99.90;;;;;;4997001;28;20046;-65
2023/07/28 02:19:20;;;;;;;24.50;8.93;;;17.70;99.90;;;;;;4991539;28;20046;-64
2023/07/28 02:21:45;;;;;;;32.38;9.52;;;17.60;99.90;;;;;;4991868;28;20062;-65
2023/07/28 02:24:11;;;;;;;26.80;9.45;;;17.70;99.90;;;;;;4990617;28;20536;-65
2023/07/28 02:26:37;;;;;;;32.33;8.40;;;17.40;99.90;;;;;;4991324;28;20034;-64
2023/07/28 02:29:02;;;;;;;23.80;8.70;;;17.70;99.90;;;;;;4988556;28;20042;-65
2023/07/28 02:31:28;;;;;;;27.05;8.30;;;18.00;99.90;;;;;;4990909;28;20042;-65
2023/07/28 02:33:55;;;;;;;23.50;8.68;;;17.50;99.90;;;;;;4991502;28;20181;-64
2023/07/28 02:36:20;;;;;;;22.77;7.97;;;18.10;99.90;;;;;;4992504;28;20037;-65
2023/07/28 02:38:46;;;;;;;25.40;7.65;;;17.50;99.90;;;;;;4985854;28;20042;-65
2023/07/28 02:41:12;;;;;;;21.55;8.23;;;18.00;99.90;;;;;;4984924;28;20132;-64
2023/07/28 02:43:37;;;;;;;22.58;7.68;;;17.80;99.90;;;;;;4987441;28;20046;-65
2023/07/28 02:46:03;;;;;;;29.77;7.45;;;17.70;99.90;;;;;;4984508;28;20042;-65
2023/07/28 02:48:29;;;;;;;28.23;7.50;;;18.10;99.90;;;;;;4985032;28;20030;-64
2023/07/28 02:50:54;;;;;;;25.00;8.35;;;18.40;99.90;;;;;;4985246;28;20101;-65
2023/07/28 02:53:20;;;;;;;28.45;7.95;;;18.20;99.90;;;;;;4987674;28;20034;-64
2023/07/28 02:55:47;;;;;;;25.95;9.50;;;18.20;99.90;;;;;;4975890;28;20039;-64
2023/07/28 02:58:13;;;;;;;21.33;7.60;;;17.80;99.90;;;;;;4986900;28;20429;-64
2023/07/28 03:00:44;;;;;;;21.98;8.52;;;18.50;99.90;;;;;;4990360;28;20047;-64
2023/07/28 03:03:11;;;;;;;19.77;7.45;;;17.80;99.90;;;;;;4984344;28;20046;-64
2023/07/28 03:05:37;;;;;;;23.45;7.32;;;18.60;99.90;;;;;;4982796;28;20117;-65
2023/07/28 03:08:04;;;;;;;22.45;7.65;;;18.40;99.90;;;;;;4983612;28;20113;-64
2023/07/28 03:10:29;;;;;;;24.77;8.45;;;17.90;99.90;;;;;;4989353;28;20038;-63
2023/07/28 03:12:55;;;;;;;28.58;9.30;;;17.80;99.90;;;;;;4990486;28;20133;-64
2023/07/28 03:15:22;;;;;;;24.88;8.25;;;18.30;99.90;;;;;;4988821;28;20491;-64
2023/07/28 03:17:48;;;;;;;21.05;8.00;;;18.10;99.90;;;;;;4989831;28;20042;-64
2023/07/28 03:20:14;;;;;;;20.02;8.38;;;17.90;99.90;;;;;;4982223;28;20097;-63
2023/07/28 03:22:39;;;;;;;23.23;8.05;;;18.00;99.90;;;;;;4977929;28;20067;-64
2023/07/28 03:25:05;;;;;;;20.80;8.07;;;17.90;99.90;;;;;;4990292;28;20046;-65
2023/07/28 03:27:31;;;;;;;23.55;8.45;;;18.40;99.90;;;;;;4990122;28;20045;-64
2023/07/28 03:29:57;;;;;;;19.45;7.95;;;17.60;99.90;;;;;;4986084;28;20049;-64
2023/07/28 03:32:23;;;;;;;17.02;7.70;;;18.00;99.90;;;;;;4989345;28;20050;-64
2023/07/28 03:34:48;;;;;;;16.25;7.47;;;18.20;99.90;;;;;;4990390;28;20385;-64
2023/07/28 03:37:14;;;;;;;19.58;8.90;;;18.10;99.90;;;;;;4989932;28;20125;-64
2023/07/28 03:39:39;;;;;;;16.83;6.63;;;18.50;99.90;;;;;;4981795;28;20046;-64
2023/07/28 03:42:05;;;;;;;23.45;8.05;;;17.80;99.90;;;;;;4990401;28;20077;-64
2023/07/28 03:44:31;;;;;;;23.73;7.47;;;17.80;99.90;;;;;;4988539;28;20038;-64
2023/07/28 03:46:57;;;;;;;25.67;7.72;;;18.30;99.90;;;;;;4982992;28;20468;-64
2023/07/28 03:49:22;;;;;;;24.00;7.65;;;17.60;99.90;;;;;;4977413;28;20038;-64
2023/07/28 03:51:48;;;;;;;16.77;7.32;;;18.40;99.90;;;;;;4984385;28;20413;-64
2023/07/28 03:54:13;;;;;;;17.40;6.53;;;18.10;99.90;;;;;;4972951;28;20418;-63
2023/07/28 03:56:41;;;;;;;20.25;7.30;;;18.10;99.90;;;;;;4986830;28;20038;-64
2023/07/28 03:59:07;;;;;;;15.68;6.45;;;18.10;99.90;;;;;;4990555;28;20435;-64
2023/07/28 04:01:33;;;;;;;15.18;6.18;;;17.80;99.90;;;;;;4989907;28;20046;-64
2023/07/28 04:04:00;;;;;;;14.30;7.20;;;18.30;99.90;;;;;;4995672;28;20045;-63
2023/07/28 04:06:42;;;;;;;14.88;6.78;;;;;;;;;;4988328;28;20034;-64
2023/07/28 04:09:08;;;;;;;15.48;8.27;;;17.70;99.90;;;;;;4978158;28;20055;-64
2023/07/28 04:11:34;;;;;;;17.50;7.47;;;18.00;99.90;;;;;;4986050;28;20112;-64
2023/07/28 04:14:00;;;;;;;13.13;6.57;;;18.40;99.90;;;;;;4989402;28;20077;-64
2023/07/28 04:16:25;;;;;;;19.13;8.25;;;18.30;99.90;;;;;;4989632;28;20070;-64
2023/07/28 04:18:51;;;;;;;15.95;6.78;;;18.10;99.90;;;;;;4985015;28;20034;-62
2023/07/28 04:21:16;;;;;;;14.63;7.60;;;18.40;99.90;;;;;;4981879;28;20042;-64
2023/07/28 04:23:43;;;;;;;15.45;7.22;;;17.80;99.90;;;;;;4985195;28;20088;-64
2023/07/28 04:26:09;;;;;;;15.32;7.72;;;17.90;99.90;;;;;;4992608;28;20079;-63
2023/07/28 04:28:34;;;;;;;15.02;7.35;;;18.00;99.90;;;;;;4985262;28;20043;-63
2023/07/28 04:31:00;;;;;;;15.80;8.55;;;18.40;99.90;;;;;;4993670;28;20030;-63
2023/07/28 04:33:26;;;;;;;17.75;9.30;;;18.10;99.90;;;;;;4994416;28;20472;-63
2023/07/28 04:35:51;;;;;;;14.25;9.43;;;17.80;99.90;;;;;;4991195;28;20079;-63
2023/07/28 04:38:18;;;;;;;17.30;9.48;;;17.80;99.90;;;;;;4996384;28;20037;-63
2023/07/28 04:40:44;;;;;;;18.90;10.68;;;18.50;99.90;;;;;;4984996;28;20034;-63
2023/07/28 04:43:10;;;;;;;21.35;11.60;;;18.30;99.90;;;;;;4993341;28;20041;-64
2023/07/28 04:45:35;;;;;;;14.05;10.95;;;18.00;99.90;;;;;;4991223;28;20034;-64
2023/07/28 04:48:01;;;;;;;17.52;11.20;;;17.70;99.90;;;;;;4980402;28;20049;-63
2023/07/28 04:50:27;;;;;;;16.20;10.55;;;18.30;99.90;;;;;;4993302;28;20042;-62
2023/07/28 04:52:53;;;;;;;17.58;11.10;;;17.90;99.90;;;;;;4993332;28;20066;-62
2023/07/28 04:55:18;;;;;;;17.70;11.95;;;17.60;99.90;;;;;;4991759;28;20504;-63
2023/07/28 04:57:46;;;;;;;22.63;12.05;;;;;;;;;;4984238;28;20467;-64
2023/07/28 05:00:12;;;;;;;18.95;12.00;;;17.80;99.90;;;;;;4992100;28;20117;-62
2023/07/28 05:02:38;;;;;;;19.33;11.95;;;17.80;99.90;;;;;;4991004;28;20100;-63
2023/07/28 05:05:04;;;;;;;17.30;11.27;;;18.30;99.90;;;;;;4992738;28;20046;-63
2023/07/28 05:07:29;;;;;;;20.20;12.93;;;17.90;99.90;;;;;;4991006;28;20050;-63
2023/07/28 05:09:55;;;;;;;17.60;11.95;;;18.50;99.90;;;;;;4992707;28;20048;-63
2023/07/28 05:12:21;;;;;;;17.70;12.82;;;18.30;99.90;;;;;;4996369;28;20038;-64
2023/07/28 05:14:47;;;;;;;19.05;12.32;;;18.50;99.90;;;;;;4992632;28;20128;-63
2023/07/28 05:17:12;;;;;;;18.95;12.05;;;17.50;99.90;;;;;;4989341;28;20042;-62
2023/07/28 05:19:38;;;;;;;19.33;12.30;;;17.50;99.90;;;;;;4992376;28;20523;-63
2023/07/28 05:22:06;;;;;;;20.38;12.80;;;17.00;99.90;;;;;;4991388;28;20049;-63
2023/07/28 05:24:32;;;;;;;20.10;13.70;;;17.80;99.90;;;;;;4992422;28;20041;-63
2023/07/28 05:26:58;;;;;;;24.05;13.73;;;18.10;99.90;;;;;;4992149;28;20500;-63
2023/07/28 05:29:24;;;;;;;21.05;13.65;;;17.70;99.90;;;;;;4990402;28;20049;-61
2023/07/28 05:31:49;;;;;;;19.52;13.13;;;18.10;99.90;;;;;;4975619;28;20042;-62
2023/07/28 05:34:15;;;;;;;22.55;13.07;;;18.00;99.90;;;;;;4994162;28;20246;-64
2023/07/28 05:36:41;;;;;;;20.73;14.63;;;18.50;99.90;;;;;;4986517;28;20165;-63
2023/07/28 05:39:06;;;;;;;20.90;13.95;;;17.60;99.90;;;;;;4998802;28;20100;-63
2023/07/28 05:41:32;;;;;;;22.48;15.45;;;17.50;99.90;;;;;;4991991;28;20041;-63
2023/07/28 05:43:58;;;;;;;19.00;13.95;;;18.20;99.90;;;;;;4989868;28;20035;-64
2023/07/28 05:46:24;;;;;;;22.52;14.48;;;17.90;99.90;;;;;;4990884;28;20037;-64
2023/07/28 05:48:49;;;;;;;21.63;13.20;;;17.50;99.90;;;;;;4992248;28;20034;-63
2023/07/28 05:51:15;;;;;;;20.60;13.85;;;17.60;99.90;;;;;;4992320;28;20041;-64
2023/07/28 05:53:41;;;;;;;20.25;13.05;;;18.50;99.90;;;;;;4994813;28;20111;-64
2023/07/28 05:56:07;;;;;;;22.13;14.38;;;18.00;99.90;;;;;;4992253;28;20034;-62
2023/07/28 05:58:33;;;;;;;21.70;14.35;;;18.60;99.90;;;;;;4990829;28;20092;-64
2023/07/28 06:00:58;;;;;;;25.17;14.65;;;17.90;99.90;;;;;;4992254;28;20085;-64
2023/07/28 06:03:24;;;;;;;25.60;15.25;;;17.70;99.90;;;;;;4985111;28;20489;-64
2023/07/28 06:05:52;;;;;;;19.70;12.95;;;18.00;99.90;;;;;;4988648;28;20044;-64
2023/07/28 06:08:18;;;;;;;19.05;12.43;;;18.60;99.90;;;;;;4991549;28;20034;-63
2023/07/28 06:10:43;;;;;;;18.35;12.85;;;18.50;99.90;;;;;;4991899;28;20038;-63
2023/07/28 06:13:09;;;;;;;19.38;13.07;;;17.70;99.90;;;;;;4992043;28;20038;-63
2023/07/28 06:15:35;;;;;;;15.60;11.95;;;18.10;99.90;;;;;;4990009;28;20045;-63
2023/07/28 06:18:02;;;;;;;16.35;11.55;;;17.80;95.90;;;;;;4991723;28;20086;-64
2023/07/28 06:20:29;;;;;;;17.48;12.77;;;18.50;99.90;;;;;;4991675;28;20038;-63
2023/07/28 06:22:55;;;;;;;17.08;12.82;;;17.80;98.00;;;;;;4984141;28;20053;-63
2023/07/28 06:25:21;;;;;;;15.70;11.60;;;17.70;99.90;;;;;;4980746;28;20114;-63
2023/07/28 06:27:47;;;;;;;14.68;11.45;;;18.50;99.90;;;;;;4991250;28;20114;-63
2023/07/28 06:30:12;;;;;;;15.38;11.40;;;18.70;99.90;;;;;;4990271;28;20062;-64
2023/07/28 06:32:38;;;;;;;19.38;12.82;;;18.50;63.20;;;;;;4978940;28;20065;-63
2023/07/28 06:35:06;;;;;;;17.05;12.35;;;18.10;88.80;;;;;;4991898;28;20101;-63
2023/07/28 06:37:32;;;;;;;20.13;13.90;;;18.50;91.90;;;;;;4986447;28;20526;-63
2023/07/28 06:39:59;;;;;;;16.35;12.25;;;18.60;48.50;;;;;;4987369;28;20068;-63
2023/07/28 06:42:25;;;;;;;15.70;11.70;;;17.60;48.60;;;;;;4974924;28;20054;-63
2023/07/28 06:44:53;;;;;;;17.30;12.70;;;17.80;71.90;;;;;;4989486;28;20045;-64
2023/07/28 06:47:19;;;;;;;17.80;12.73;;;18.50;53.20;;;;;;4990845;28;20031;-63
2023/07/28 06:49:45;;;;;;;18.15;13.93;;;18.60;54.80;;;;;;4990628;28;20519;-63
2023/07/28 06:52:10;;;;;;;17.60;12.85;;;17.80;47.30;;;;;;4983995;28;20049;-63
2023/07/28 06:54:36;;;;;;;18.88;13.98;;;18.60;63.50;;;;;;4994390;28;20049;-63
2023/07/28 06:57:02;;;;;;;17.77;13.98;;;18.80;64.40;;;;;;4981940;28;20046;-64
2023/07/28 06:59:27;;;;;;;15.02;11.50;;;18.60;16.60;;;;;;4979373;28;20060;-64
2023/07/28 07:01:53;;;;;;;17.95;11.88;;;18.60;34.20;;;;;;4989011;28;20046;-64
2023/07/28 07:04:19;;;;;;;16.27;12.43;;;18.50;1.00;;;;;;4989375;28;20526;-63
2023/07/28 07:06:45;;;;;;;19.02;12.77;;;18.60;1.00;;;;;;4988834;28;20054;-63
2023/07/28 07:09:14;;;;;;;16.90;12.82;;;18.00;1.00;;;;;;4985457;28;20064;-64
2023/07/28 07:11:40;;;;;;;16.95;11.93;;;18.50;1.00;;;;;;4988912;28;20496;-62
2023/07/28 07:14:06;;;;;;;16.25;10.98;;;18.80;1.00;;;;;;4984317;28;20034;-63
2023/07/28 07:16:34;;;;;;;14.68;11.68;;;17.90;1.00;;;;;;4990630;28;20096;-63
2023/07/28 07:19:00;;;;;;;18.77;12.68;;;18.50;1.00;;;;;;4988719;28;20543;-63
2023/07/28 07:21:27;;;;;;;17.80;13.02;;;18.70;1.00;;;;;;4979391;28;20115;-63
2023/07/28 07:23:53;;;;;;;18.05;13.50;;;18.60;1.00;;;;;;4989579;28;20121;-63
2023/07/28 07:26:18;;;;;;;19.38;14.35;;;18.50;1.00;;;;;;4983618;28;20544;-63
2023/07/28 07:28:44;;;;;;;21.10;15.20;;;18.50;1.00;;;;;;4986721;28;20105;-63
2023/07/28 07:31:14;;;;;;;22.27;15.27;;;18.10;1.00;;;;;;4990604;28;20027;-63
2023/07/28 07:33:40;;;;;;;20.55;14.63;;;18.50;1.00;;;;;;4986411;28;20042;-64
2023/07/28 07:36:05;;;;;;;18.05;12.63;;;18.70;1.00;;;;;;4990285;28;20045;-63
2023/07/28 07:38:31;;;;;;;21.85;13.82;;;17.80;1.00;;;;;;4989260;28;20045;-62
2023/07/28 07:40:57;;;;;;;17.88;12.82;;;18.30;1.00;;;;;;4987169;28;20045;-63
2023/07/28 07:43:22;;;;;;;18.88;12.55;;;18.60;1.00;;;;;;4988399;28;20038;-64
2023/07/28 07:45:50;;;;;;;18.75;13.38;;;18.60;1.00;;;;;;4982253;28;20042;-63
2023/07/28 07:48:15;;;;;;;21.40;14.48;;;18.00;13.30;;;;;;4979502;28;20457;-63
2023/07/28 07:50:41;;;;;;;17.60;13.23;;;18.50;30.40;;;;;;4982578;28;20049;-63
2023/07/28 07:53:07;;;;;;;15.15;11.55;;;18.90;1.00;;;;;;4982410;28;20050;-63
2023/07/28 07:55:32;;;;;;;16.38;11.18;;;18.20;1.00;;;;;;4984754;28;20452;-63
2023/07/28 07:57:58;;;;;;;15.63;10.27;;;18.70;1.00;;;;;;4983740;28;20041;-62
2023/07/28 08:00:24;;;;;;;14.02;9.98;;;19.00;1.00;;;;;;4989364;28;20566;-63
2023/07/28 08:02:50;;;;;;;12.07;8.90;;;18.50;1.00;;;;;;4986525;28;20601;-63
2023/07/28 08:05:15;;;;;;;13.30;9.23;;;18.70;1.00;;;;;;4997258;28;20034;-63
2023/07/28 08:07:42;;;;;;;10.50;8.10;;;19.00;1.00;;;;;;4988359;28;20097;-63
2023/07/28 08:10:08;;;;;;;12.70;9.05;;;18.60;99.90;;;;;;4978087;28;20045;-63
2023/07/28 08:12:34;;;;;;;11.38;8.75;;;18.90;99.90;;;;;;4986747;28;20047;-64
2023/07/28 08:15:00;;;;;;;11.25;8.68;;;19.00;99.90;;;;;;4993377;28;20054;-62
2023/07/28 08:17:25;;;;;;;15.20;9.15;;;18.90;99.90;;;;;;4985871;28;20053;-64
2023/07/28 08:19:51;;;;;;;10.75;8.80;;;18.30;99.90;;;;;;4987462;28;20129;-62
2023/07/28 08:22:16;;;;;;;11.13;7.82;;;19.00;99.90;;;;;;4994148;28;20044;-63
2023/07/28 08:24:42;;;;;;;11.70;8.25;;;18.80;99.90;;;;;;4986477;28;20042;-63
2023/07/28 08:27:08;;;;;;;12.18;8.48;;;19.00;99.90;;;;;;4993140;28;20034;-63
2023/07/28 08:29:34;;;;;;;13.30;8.43;;;18.90;99.90;;;;;;4986847;28;20038;-63
2023/07/28 08:31:59;;;;;;;12.00;8.80;;;19.10;99.90;;;;;;4991342;28;20419;-64
2023/07/28 08:34:27;;;;;;;11.07;8.52;;;19.10;99.90;;;;;;4985181;28;20069;-63
2023/07/28 08:36:52;;;;;;;12.18;8.40;;;19.20;99.90;;;;;;4993101;28;20073;-63
2023/07/28 08:39:18;;;;;;;11.48;7.85;;;18.90;99.90;;;;;;4993545;28;20531;-63
2023/07/28 08:41:44;;;;;;;10.52;7.60;;;19.10;99.90;;;;;;4993249;28;20038;-64
2023/07/28 08:44:09;;;;;;;9.85;6.78;;;19.10;99.90;;;;;;5001459;28;20072;-63
2023/07/28 08:46:36;;;;;;;9.10;6.95;;;19.10;99.90;;;;;;4985693;28;20026;-63
2023/07/28 08:49:02;;;;;;;7.65;4.70;;;19.40;99.90;;;;;;4991579;28;20096;-63
2023/07/28 08:51:28;;;;;;;7.28;4.50;;;19.40;99.90;;;;;;4985644;28;20045;-64
2023/07/28 08:53:53;;;;;;;6.80;4.90;;;19.50;99.90;;;;;;4991584;28;20050;-64
2023/07/28 08:56:20;;;;;;;7.47;5.18;;;19.90;99.90;;;;;;4982093;28;20471;-62
2023/07/28 08:58:46;;;;;;;7.88;5.50;;;19.10;99.90;;;;;;4989528;28;20042;-63
2023/07/28 09:01:12;;;;;;;6.97;5.35;;;19.70;99.90;;;;;;4993350;28;20487;-63
2023/07/28 09:03:41;;;;;;;7.28;4.78;;;19.80;99.90;;;;;;4992988;28;20041;-63
2023/07/28 09:06:10;;;;;;;7.13;5.10;;;19.30;99.90;;;;;;4992342;28;20034;-63
2023/07/28 09:08:37;;;;;;;7.55;5.03;;;19.90;99.90;;;;;;4991137;28;20038;-62
2023/07/28 09:11:05;;;;;;;7.13;4.95;;;20.20;99.90;;;;;;4981520;28;20046;-62
2023/07/28 09:13:43;;;;;;;7.03;4.10;;;19.90;99.90;;;;;;4992932;28;20030;-64
2023/07/28 09:16:18;;;;;;;8.18;4.03;;;19.80;97.10;;;;;;4992497;28;20042;-63
2023/07/28 09:18:44;;;;;;;7.25;4.85;;;19.90;67.20;;;;;;4992478;28;20415;-62
2023/07/28 09:21:20;;;;;;;6.72;3.88;;;20.60;80.30;;;;;;4981598;28;20038;-63
2023/07/28 09:23:47;;;;;;;5.90;3.63;;;19.70;71.10;;;;;;4992459;28;20038;-62
2023/07/28 09:26:15;;;;;;;6.95;3.75;;;20.60;56.00;;;;;;4996774;28;20073;-62
2023/07/28 09:28:41;;;;;;;7.53;4.53;;;19.80;1.00;;;;;;4992308;28;20410;-63
2023/07/28 09:31:08;;;;;;;6.18;3.97;;;20.40;1.40;;;;;;4994527;28;20057;-63
2023/07/28 09:33:35;;;;;;;7.32;4.68;;;19.80;16.10;;;;;;4988903;28;20402;-63
2023/07/28 09:36:09;;;;;;;6.32;4.40;;;19.70;1.00;;;;;;4988218;28;20034;-63
2023/07/28 09:38:42;;;;;;;7.15;4.95;;;19.80;11.50;;;;;;4992624;28;20039;-63
2023/07/28 09:41:11;;;;;;;6.32;3.67;;;20.20;37.70;;;;;;4983912;28;20065;-62
2023/07/28 09:43:38;;;;;;;6.75;4.13;;;20.40;1.00;;;;;;4977923;28;20074;-63
2023/07/28 09:46:07;;;;;;;8.02;5.25;;;20.70;1.00;;;;;;4983155;28;20035;-63
2023/07/28 09:48:34;;;;;;;7.57;4.40;;;19.90;1.00;;;;;;4996520;28;20039;-62
2023/07/28 09:51:09;;;;;;;6.60;3.70;;;20.90;1.00;;;;;;4986115;28;20034;-63
2023/07/28 09:53:38;;;;;;;7.13;3.70;;;20.80;1.00;;;;;;4991960;28;20104;-62
2023/07/28 09:56:04;;;;;;;6.05;3.85;;;21.10;1.00;;;;;;4983656;28;20535;-64
2023/07/28 09:58:33;;;;;;;7.45;4.00;;;20.90;1.00;;;;;;4981257;28;20117;-62
2023/07/28 10:01:00;;;;;;;6.50;3.45;;;20.80;1.00;;;;;;4991591;28;20056;-62
2023/07/28 10:03:26;;;;;;;6.78;4.25;;;21.00;1.00;;;;;;4989201;28;20027;-62
2023/07/28 10:05:52;;;;;;;7.22;4.00;;;20.80;1.00;;;;;;4990255;28;20052;-63
2023/07/28 10:08:19;;;;;;;7.25;3.83;;;20.20;1.00;;;;;;4993698;28;20042;-63
2023/07/28 10:10:46;;;;;;;5.70;3.60;;;20.60;1.00;;;;;;4982281;28;20550;-63
2023/07/28 10:13:20;;;;;;;7.30;4.15;;;20.20;1.00;;;;;;4974102;28;20500;-62
2023/07/28 10:15:47;;;;;;;6.18;3.92;;;20.50;1.00;;;;;;4990002;28;20125;-62
2023/07/28 10:18:13;;;;;;;6.35;3.40;;;21.10;1.00;;;;;;4988084;28;20038;-63
2023/07/28 10:20:43;;;;;;;7.07;3.50;;;21.20;1.00;;;;;;4984839;28;20464;-63
2023/07/28 10:23:17;;;;;;;7.13;3.88;;;20.70;1.00;;;;;;4972088;28;20046;-63
2023/07/28 10:25:44;;;;;;;7.32;4.13;;;20.70;99.90;;;;;;4989131;28;20046;-63
2023/07/28 10:28:41;;;;;;;7.13;4.55;;;20.70;99.90;;;;;;4998209;28;20042;-63
2023/07/28 10:31:10;;;;;;;6.70;4.07;;;20.30;99.90;;;;;;4987914;28;20531;-63
2023/07/28 10:33:43;;;;;;;6.90;4.00;;;21.00;1.00;;;;;;4989598;28;20164;-63
2023/07/28 10:36:22;;;;;;;7.00;4.57;;;21.10;1.00;;;;;;4987429;28;20128;-63
2023/07/28 10:39:01;;;;;;;7.15;4.32;;;20.40;1.00;;;;;;4990981;28;20039;-63
2023/07/28 10:41:26;;;;;;;6.90;3.40;;;21.10;1.00;;;;;;4978547;28;20038;-63
2023/07/28 10:43:52;;;;;;;6.45;3.40;;;21.30;1.00;;;;;;4981735;28;20045;-63
2023/07/28 10:46:20;;;;;;;6.28;3.83;;;20.50;99.90;;;;;;4992354;28;20070;-62
2023/07/28 10:48:48;;;;;;;6.43;3.83;;;21.30;99.90;;;;;;4990433;28;20035;-63
2023/07/28 10:51:40;;;;;;;5.53;3.00;;;20.70;99.90;;;;;;4986897;28;20061;-64
2023/07/28 10:54:06;;;;;;;6.82;4.20;;;20.60;99.90;;;;;;4988609;28;20090;-63
2023/07/28 10:56:32;;;;;;;6.03;3.30;;;21.30;99.90;;;;;;4984622;28;20121;-62
2023/07/28 10:59:03;;;;;;;5.85;2.50;;;21.20;99.90;;;;;;4988946;28;20113;-63
2023/07/28 11:01:36;;;;;;;5.28;2.58;;;21.10;99.90;;;;;;4982830;28;20049;-63
2023/07/28 11:04:16;;;;;;;5.88;2.40;;;20.80;99.90;;;;;;4986337;28;20047;-63
2023/07/28 11:06:44;;;;;;;5.30;2.83;;;21.90;99.90;;;;;;4972323;28;20034;-63
2023/07/28 11:09:11;;;;;;;5.38;2.40;;;21.00;99.90;;;;;;4987477;28;20050;-62
2023/07/28 11:11:38;;;;;;;5.05;2.60;;;21.70;99.90;;;;;;4983382;28;20117;-63
2023/07/28 11:14:08;;;;;;;5.53;2.85;;;22.40;99.90;;;;;;4981406;28;20050;-63
2023/07/28 11:16:36;;;;;;;6.30;2.80;;;22.00;99.90;;;;;;4989755;28;20384;-63
2023/07/28 11:19:06;;;;;;;7.28;3.53;;;22.00;99.90;;;;;;4988534;28;20043;-63
2023/07/28 11:21:37;;;;;;;5.32;3.05;;;22.30;99.90;;;;;;4981410;28;20066;-63
2023/07/28 11:24:03;;;;;;;5.43;2.67;;;21.90;99.90;;;;;;4990004;28;20404;-63
2023/07/28 11:26:29;;;;;;;7.55;3.40;;;22.40;99.90;;;;;;4995209;28;20109;-62
2023/07/28 11:28:54;;;;;;;6.88;3.40;;;22.20;99.90;;;;;;4986658;28;20492;-63
2023/07/28 11:31:25;;;;;;;7.50;4.30;;;22.20;99.90;;;;;;4990094;28;20058;-63
2023/07/28 11:33:51;;;;;;;5.65;2.85;;;22.40;99.90;;;;;;4989017;28;20559;-63
2023/07/28 11:36:29;;;;;;;5.85;2.47;;;21.60;99.90;;;;;;4989634;28;20129;-63
2023/07/28 11:38:58;;;;;;;5.82;2.65;;;21.90;99.90;;;;;;4989669;28;20535;-62
2023/07/28 11:41:24;;;;;;;6.97;3.38;;;22.40;99.90;;;;;;4985329;28;20053;-64
2023/07/28 11:43:51;;;;;;;5.28;2.47;;;22.00;99.90;;;;;;4986188;28;20049;-64
2023/07/28 11:46:36;;;;;;;6.13;2.65;;;22.00;99.90;;;;;;4989757;28;20675;-63
2023/07/28 11:49:21;;;;;;;4.68;2.17;;;22.10;88.50;;;;;;4989485;28;20066;-63
2023/07/28 11:51:48;;;;;;;5.28;2.60;;;22.00;99.90;;;;;;4990037;28;20042;-63
2023/07/28 11:54:15;;;;;;;5.93;2.60;;;22.40;99.90;;;;;;4977454;28;20405;-63
2023/07/28 11:56:46;;;;;;;4.57;2.10;;;22.40;88.10;;;;;;4973029;28;20042;-63
2023/07/28 11:59:14;;;;;;;5.90;2.35;;;22.60;73.50;;;;;;4979825;28;20038;-63
2023/07/28 12:01:58;;;;;;;4.97;2.63;;;22.50;49.00;;;;;;4977031;28;20035;-63
2023/07/28 12:04:25;;;;;;;5.27;2.27;;;22.80;1.00;;;;;;4989426;28;20400;-64
2023/07/28 12:07:09;;;;;;;5.15;2.25;;;22.50;1.00;;;;;;4989642;28;20081;-63
2023/07/28 12:09:51;;;;;;;4.83;2.10;;;22.70;1.00;;;;;;4978346;28;20096;-63
2023/07/28 12:12:19;;;;;;;6.50;2.55;;;22.50;1.00;;;;;;4972334;28;20069;-63
2023/07/28 12:14:48;;;;;;;7.68;2.63;;;22.80;1.00;;;;;;4989764;28;20607;-64
2023/07/28 12:17:18;;;;;;;5.85;2.80;;;22.70;1.00;;;;;;4981628;28;20057;-63
2023/07/28 12:19:56;;;;;;;5.25;2.45;;;22.70;7.90;;;;;;4986051;28;20074;-63
2023/07/28 12:22:22;;;;;;;6.30;3.20;;;22.80;1.00;;;;;;4981374;28;20121;-64
2023/07/28 12:24:48;;;;;;;5.25;2.17;;;22.40;1.00;;;;;;4988249;28;20121;-63
2023/07/28 12:27:13;;;;;;;4.93;1.95;;;22.70;1.00;;;;;;4988450;28;20043;-63
2023/07/28 12:29:39;;;;;;;4.75;2.15;;;23.10;99.90;;;;;;4989758;28;20121;-64
2023/07/28 12:32:05;;;;;;;4.85;1.70;;;23.20;99.90;;;;;;4989354;28;20100;-63
2023/07/28 12:34:31;;;;;;;5.75;1.83;;;23.10;99.90;;;;;;4986360;28;20070;-64
2023/07/28 12:36:56;;;;;;;4.90;2.13;;;23.20;99.90;;;;;;4989038;28;20042;-63
2023/07/28 12:39:23;;;;;;;5.03;2.10;;;23.60;99.90;;;;;;4981187;28;20102;-62